Time;durP1;ratioP1;P1;durP2;ratioP2;P2;SDS_P1;SDS_P2;PMS_P1;PMS_P2;Temp;Humidity;BMP_temperature;BMP_pressure;BME280_temperature;BME280_humidity;BME280_pressure;Samples;Min_cycle;Max_cycle;Signal;HPM_P1;HPM_P2
2022/11/13 00:00:19;;;;;;;56.63;23.17;;;6.30;99.90;;;;;;5070175;28;20200;-67
2022/11/13 00:03:06;;;;;;;65.85;25.73;;;6.30;99.90;;;;;;5054686;28;20196;-67
2022/11/13 00:05:59;;;;;;;67.95;22.20;;;6.40;99.90;;;;;;5056591;28;20197;-67
2022/11/13 00:08:46;;;;;;;80.43;25.27;;;6.40;99.90;;;;;;5057007;28;20230;-67
2022/11/13 00:11:32;;;;;;;48.47;22.38;;;6.30;99.90;;;;;;5071895;28;20227;-67
2022/11/13 00:14:20;;;;;;;72.20;25.58;;;6.30;99.90;;;;;;5071226;28;20667;-67
2022/11/13 00:17:06;;;;;;;69.20;25.23;;;6.30;99.90;;;;;;5071733;28;20192;-67
2022/11/13 00:19:53;;;;;;;89.30;25.67;;;6.30;99.90;;;;;;5071121;28;20202;-67
2022/11/13 00:22:39;;;;;;;83.88;26.00;;;6.30;99.90;;;;;;5051529;28;20197;-67
2022/11/13 00:25:25;;;;;;;77.22;27.48;;;6.30;99.90;;;;;;5053174;28;20185;-67
2022/11/13 00:28:12;;;;;;;80.53;25.85;;;6.40;99.90;;;;;;5059838;28;20590;-67
2022/11/13 00:31:01;;;;;;;73.70;25.92;;;6.40;99.90;;;;;;5073435;28;20202;-67
2022/11/13 00:33:48;;;;;;;92.43;25.65;;;6.30;99.90;;;;;;5053171;28;20184;-67
2022/11/13 00:36:35;;;;;;;76.57;26.58;;;6.30;99.90;;;;;;5063435;28;20184;-67
2022/11/13 00:39:21;;;;;;;63.85;23.80;;;6.40;99.90;;;;;;5055411;28;20209;-67
2022/11/13 00:42:08;;;;;;;60.67;24.77;;;6.40;99.90;;;;;;5059913;28;20195;-68
2022/11/13 00:44:54;;;;;;;60.50;24.77;;;6.40;99.90;;;;;;5058843;28;20198;-67
2022/11/13 00:47:42;;;;;;;87.22;25.63;;;6.40;99.90;;;;;;5059242;28;20191;-67
2022/11/13 00:50:28;;;;;;;86.47;26.35;;;6.40;99.90;;;;;;5074820;28;20196;-67
2022/11/13 00:53:15;;;;;;;81.28;25.73;;;6.30;99.90;;;;;;5074278;28;20265;-71
2022/11/13 00:56:01;;;;;;;71.97;23.85;;;6.30;99.90;;;;;;5074411;28;20212;-67
2022/11/13 00:58:48;;;;;;;60.83;24.58;;;6.30;99.90;;;;;;5073931;28;20608;-67
2022/11/13 01:01:35;;;;;;;62.38;23.10;;;6.30;99.90;;;;;;5053941;28;20203;-66
2022/11/13 01:04:23;;;;;;;77.28;27.20;;;6.30;99.90;;;;;;5056520;28;20185;-66
2022/11/13 01:07:10;;;;;;;86.53;25.42;;;6.20;99.90;;;;;;5053953;28;20559;-66
2022/11/13 01:09:56;;;;;;;86.22;26.48;;;6.30;99.90;;;;;;5061399;28;20203;-67
2022/11/13 01:12:42;;;;;;;75.85;25.60;;;6.30;99.90;;;;;;5072495;28;20212;-67
2022/11/13 01:15:28;;;;;;;56.70;25.08;;;6.30;99.90;;;;;;5053909;28;20224;-67
2022/11/13 01:18:15;;;;;;;72.65;26.60;;;6.30;99.90;;;;;;5060875;28;20552;-66
2022/11/13 01:21:09;;;;;;;72.30;23.83;;;6.30;99.90;;;;;;5056673;28;20188;-66
2022/11/13 01:23:55;;;;;;;73.78;26.50;;;6.30;99.90;;;;;;5057267;28;20222;-66
2022/11/13 01:26:42;;;;;;;61.90;24.38;;;6.40;99.90;;;;;;5060982;28;20203;-67
2022/11/13 01:29:28;;;;;;;56.90;24.70;;;6.40;99.90;;;;;;5056547;28;20239;-67
2022/11/13 01:32:14;;;;;;;66.85;25.60;;;6.30;99.90;;;;;;5073910;28;20184;-67
2022/11/13 01:35:00;;;;;;;71.25;23.67;;;6.40;99.90;;;;;;5073242;28;20216;-66
2022/11/13 01:37:48;;;;;;;55.75;21.70;;;6.30;99.90;;;;;;5073710;28;20199;-67
2022/11/13 01:40:34;;;;;;;47.88;23.63;;;6.20;99.90;;;;;;5073619;28;20192;-67
2022/11/13 01:43:25;;;;;;;67.22;24.83;;;6.30;99.90;;;;;;5072590;28;20631;-66
2022/11/13 01:46:33;;;;;;;83.57;22.65;;;6.20;99.90;;;;;;5073295;28;20180;-66
2022/11/13 01:49:30;;;;;;;52.42;21.27;;;6.20;99.90;;;;;;5073709;28;20207;-67
2022/11/13 01:52:19;;;;;;;56.97;22.95;;;6.30;99.90;;;;;;5073395;28;20191;-68
2022/11/13 01:55:12;;;;;;;52.95;23.67;;;6.30;99.90;;;;;;5073624;28;20253;-67
2022/11/13 01:57:59;;;;;;;64.30;24.98;;;6.30;99.90;;;;;;5073384;28;20203;-67
2022/11/13 02:00:46;;;;;;;54.40;23.15;;;6.30;99.90;;;;;;5071547;28;20705;-66
2022/11/13 02:03:32;;;;;;;54.72;21.48;;;6.30;99.90;;;;;;5071898;28;20684;-65
2022/11/13 02:06:20;;;;;;;54.65;23.38;;;6.30;99.90;;;;;;5072245;28;20241;-66
2022/11/13 02:09:08;;;;;;;55.45;22.98;;;6.20;99.90;;;;;;5073613;28;20196;-66
2022/11/13 02:11:56;;;;;;;54.13;23.63;;;6.20;99.90;;;;;;5072312;28;20230;-66
2022/11/13 02:14:46;;;;;;;45.58;21.65;;;6.20;99.90;;;;;;5073025;28;20192;-66
2022/11/13 02:17:36;;;;;;;48.97;22.52;;;6.20;99.90;;;;;;5072845;28;20204;-66
2022/11/13 02:20:31;;;;;;;54.05;21.75;;;6.20;99.90;;;;;;5053102;28;20207;-66
2022/11/13 02:23:25;;;;;;;78.43;22.55;;;6.20;99.90;;;;;;5052892;28;20219;-66
2022/11/13 02:26:13;;;;;;;54.78;22.77;;;6.20;99.90;;;;;;5053101;28;20677;-66
2022/11/13 02:28:59;;;;;;;53.95;23.42;;;6.20;99.90;;;;;;5051896;28;20225;-66
2022/11/13 02:31:46;;;;;;;61.50;25.13;;;6.20;99.90;;;;;;5052635;28;20196;-66
2022/11/13 02:34:32;;;;;;;60.90;24.40;;;6.30;99.90;;;;;;5052314;28;20189;-66
2022/11/13 02:37:18;;;;;;;72.20;27.00;;;6.30;99.90;;;;;;5069151;28;20218;-67
2022/11/13 02:40:05;;;;;;;53.20;23.92;;;6.20;99.90;;;;;;5052858;28;20197;-66
2022/11/13 02:42:53;;;;;;;51.95;22.20;;;6.20;99.90;;;;;;5072408;28;20203;-66
2022/11/13 02:45:40;;;;;;;53.45;26.70;;;6.30;99.90;;;;;;5070839;28;20639;-66
2022/11/13 02:48:26;;;;;;;55.53;25.92;;;6.20;99.90;;;;;;5066973;28;20192;-66
2022/11/13 02:51:13;;;;;;;80.60;26.38;;;6.20;99.90;;;;;;5060406;28;20196;-66
2022/11/13 02:54:00;;;;;;;68.18;27.13;;;6.20;99.90;;;;;;5070739;28;20184;-66
2022/11/13 02:56:46;;;;;;;62.30;27.02;;;6.20;99.90;;;;;;5071758;28;20211;-66
2022/11/13 02:59:34;;;;;;;56.78;26.02;;;6.10;99.90;;;;;;5070017;28;20196;-67
2022/11/13 03:02:20;;;;;;;69.30;27.83;;;6.10;99.90;;;;;;5069802;28;20602;-66
2022/11/13 03:05:07;;;;;;;65.85;26.75;;;6.10;99.90;;;;;;5054327;28;20197;-66
2022/11/13 03:07:54;;;;;;;76.55;30.48;;;6.00;99.90;;;;;;5057615;28;20200;-67
2022/11/13 03:10:40;;;;;;;73.40;27.70;;;6.00;99.90;;;;;;5064595;28;20717;-66
2022/11/13 03:13:27;;;;;;;73.97;26.65;;;6.00;99.90;;;;;;5056873;28;20555;-66
2022/11/13 03:16:16;;;;;;;67.78;27.00;;;6.00;99.90;;;;;;5059659;28;20208;-66
2022/11/13 03:19:03;;;;;;;67.07;26.70;;;6.00;99.90;;;;;;5057068;28;20204;-65
2022/11/13 03:21:49;;;;;;;61.72;25.27;;;6.00;99.90;;;;;;5070531;28;20195;-67
2022/11/13 03:24:36;;;;;;;60.45;25.95;;;6.00;99.90;;;;;;5061117;28;20639;-67
2022/11/13 03:27:22;;;;;;;58.78;25.40;;;6.00;99.90;;;;;;5068173;28;20203;-67
2022/11/13 03:30:10;;;;;;;67.47;28.17;;;6.00;99.90;;;;;;5065128;28;20204;-67
2022/11/13 03:32:58;;;;;;;56.78;25.50;;;6.00;99.90;;;;;;5052146;28;20545;-67
2022/11/13 03:35:44;;;;;;;63.90;26.02;;;6.00;99.90;;;;;;5051109;28;20594;-67
2022/11/13 03:38:30;;;;;;;61.78;24.42;;;6.00;99.90;;;;;;5051834;28;20193;-67
2022/11/13 03:41:17;;;;;;;60.15;22.40;;;6.00;99.90;;;;;;5058998;28;20215;-67
2022/11/13 03:44:03;;;;;;;81.00;24.63;;;6.00;99.90;;;;;;5054986;28;20192;-67
2022/11/13 03:46:50;;;;;;;60.72;23.92;;;5.90;99.90;;;;;;5063654;28;20184;-67
2022/11/13 03:49:37;;;;;;;54.22;24.88;;;5.90;99.90;;;;;;5054562;28;20570;-67
2022/11/13 03:52:24;;;;;;;61.08;24.38;;;5.80;99.90;;;;;;5063943;28;20536;-67
2022/11/13 03:55:10;;;;;;;54.53;24.52;;;5.80;99.90;;;;;;5071449;28;20647;-67
2022/11/13 03:57:57;;;;;;;55.40;25.80;;;5.80;99.90;;;;;;5071485;28;20184;-67
2022/11/13 04:00:44;;;;;;;52.45;23.40;;;5.90;99.90;;;;;;5066897;28;20200;-66
2022/11/13 04:03:30;;;;;;;63.35;23.85;;;5.90;99.90;;;;;;5053351;28;20196;-66
2022/11/13 04:06:18;;;;;;;54.42;22.58;;;5.90;99.90;;;;;;5053799;28;20189;-67
2022/11/13 04:09:04;;;;;;;53.60;23.83;;;5.80;99.90;;;;;;5055199;28;20226;-65
2022/11/13 04:11:51;;;;;;;46.38;21.95;;;5.90;99.90;;;;;;5055616;28;20231;-67
2022/11/13 04:14:37;;;;;;;45.85;22.23;;;5.80;99.90;;;;;;5067920;28;20199;-65
2022/11/13 04:17:24;;;;;;;60.97;24.67;;;5.80;99.90;;;;;;5055502;28;20220;-65
2022/11/13 04:20:11;;;;;;;59.17;24.98;;;5.80;99.90;;;;;;5054697;28;20620;-65
2022/11/13 04:22:59;;;;;;;54.92;24.02;;;5.80;99.90;;;;;;5055845;28;20197;-66
2022/11/13 04:25:48;;;;;;;57.45;23.65;;;5.90;99.90;;;;;;5055134;28;20532;-66
2022/11/13 04:28:34;;;;;;;53.80;25.25;;;5.90;99.90;;;;;;5054599;28;20236;-66
2022/11/13 04:31:21;;;;;;;56.08;25.33;;;5.80;99.90;;;;;;5054989;28;20635;-65
2022/11/13 04:34:08;;;;;;;53.10;24.33;;;5.70;99.90;;;;;;5055043;28;20199;-65
2022/11/13 04:36:55;;;;;;;55.05;24.77;;;5.70;99.90;;;;;;5055145;28;20675;-65
2022/11/13 04:39:42;;;;;;;54.05;25.15;;;5.80;99.90;;;;;;5055153;28;20185;-66
2022/11/13 04:45:34;;;;;;;52.75;24.73;;;5.70;99.90;;;;;;5074983;28;20684;-66
2022/11/13 04:48:20;;;;;;;49.63;23.67;;;5.70;99.90;;;;;;5074709;28;20542;-67
2022/11/13 04:51:06;;;;;;;43.13;21.45;;;5.70;99.90;;;;;;5074858;28;20237;-67
2022/11/13 04:53:53;;;;;;;46.17;24.58;;;5.60;99.90;;;;;;5069240;28;20601;-67
2022/11/13 04:56:40;;;;;;;58.22;24.48;;;5.50;99.90;;;;;;5061276;28;20207;-66
2022/11/13 04:59:27;;;;;;;60.80;27.70;;;5.60;99.90;;;;;;5072812;28;20188;-67
2022/11/13 05:02:13;;;;;;;48.08;23.55;;;5.60;99.90;;;;;;5058733;28;20196;-66
2022/11/13 05:04:59;;;;;;;45.47;19.83;;;5.60;99.90;;;;;;5067593;28;20584;-67
2022/11/13 05:07:46;;;;;;;41.90;21.25;;;5.50;99.90;;;;;;5067011;28;20191;-67
2022/11/13 05:10:32;;;;;;;39.47;20.85;;;5.50;99.90;;;;;;5071426;28;20191;-67
2022/11/13 05:13:20;;;;;;;38.92;19.77;;;5.40;99.90;;;;;;5065504;28;20214;-67
2022/11/13 05:16:09;;;;;;;37.25;18.45;;;5.50;99.90;;;;;;5071855;28;20216;-66
2022/11/13 05:18:57;;;;;;;29.77;15.30;;;5.50;99.90;;;;;;5053781;28;20547;-66
2022/11/13 05:21:43;;;;;;;36.55;16.98;;;5.50;99.90;;;;;;5053967;28;20193;-66
2022/11/13 05:24:30;;;;;;;40.50;17.98;;;5.40;99.90;;;;;;5053904;28;20189;-66
2022/11/13 05:27:16;;;;;;;43.60;16.95;;;5.40;99.90;;;;;;5053885;28;20223;-66
2022/11/13 05:30:05;;;;;;;48.58;17.00;;;5.40;99.90;;;;;;5070338;28;20555;-66
2022/11/13 05:32:52;;;;;;;29.70;17.50;;;5.40;99.90;;;;;;5074283;28;20603;-67
2022/11/13 05:35:38;;;;;;;50.88;16.90;;;5.40;99.90;;;;;;5073853;28;20242;-66
2022/11/13 05:38:24;;;;;;;38.15;15.95;;;5.30;99.90;;;;;;5073588;28;20192;-67
2022/11/13 05:41:13;;;;;;;50.05;14.93;;;5.20;99.90;;;;;;5073772;28;20241;-67
2022/11/13 05:44:00;;;;;;;36.90;16.20;;;5.20;99.90;;;;;;5073242;28;20192;-67
2022/11/13 05:46:48;;;;;;;39.30;13.65;;;5.20;99.90;;;;;;5073623;28;20180;-67
2022/11/13 05:49:34;;;;;;;26.83;13.45;;;5.10;99.90;;;;;;5067578;28;20261;-66
2022/11/13 05:52:20;;;;;;;63.47;14.30;;;5.10;99.90;;;;;;5073760;28;20230;-66
2022/11/13 05:55:08;;;;;;;49.75;14.77;;;5.00;99.90;;;;;;5073686;28;20599;-66
2022/11/13 05:57:54;;;;;;;48.80;14.88;;;5.00;99.90;;;;;;5073379;28;20265;-66
2022/11/13 06:00:40;;;;;;;42.15;16.08;;;5.00;99.90;;;;;;5071661;28;20606;-66
2022/11/13 06:03:29;;;;;;;47.90;14.98;;;5.00;99.90;;;;;;5072062;28;20200;-66
2022/11/13 06:06:17;;;;;;;33.60;13.30;;;5.10;99.90;;;;;;5072954;28;20188;-67
2022/11/13 06:09:05;;;;;;;56.50;15.38;;;5.20;99.90;;;;;;5072731;28;20188;-66
2022/11/13 06:11:51;;;;;;;23.65;15.05;;;5.00;99.90;;;;;;5072986;28;20633;-66
2022/11/13 06:14:38;;;;;;;28.35;14.35;;;5.00;99.90;;;;;;5073220;28;20184;-67
2022/11/13 06:17:24;;;;;;;38.45;13.93;;;5.00;99.90;;;;;;5072571;28;20204;-66
2022/11/13 06:20:12;;;;;;;29.35;12.75;;;4.90;99.90;;;;;;5072544;28;20192;-66
2022/11/13 06:22:58;;;;;;;33.75;12.63;;;4.80;99.90;;;;;;5072808;28;20196;-65
2022/11/13 06:25:45;;;;;;;38.67;12.98;;;4.70;99.90;;;;;;5072645;28;20552;-65
2022/11/13 06:28:32;;;;;;;28.35;12.40;;;4.70;99.90;;;;;;5060276;28;20587;-66
2022/11/13 06:31:22;;;;;;;48.10;13.50;;;4.60;99.90;;;;;;5062373;28;20192;-65
2022/11/13 06:34:08;;;;;;;33.78;11.93;;;4.60;99.90;;;;;;5060893;28;20669;-65
2022/11/13 06:36:56;;;;;;;49.67;13.65;;;4.60;99.90;;;;;;5060076;28;20201;-65
2022/11/13 06:39:43;;;;;;;36.92;12.40;;;4.60;99.90;;;;;;5061039;28;20532;-65
2022/11/13 06:42:30;;;;;;;41.63;11.13;;;4.50;99.90;;;;;;5058200;28;20291;-65
2022/11/13 06:45:16;;;;;;;23.10;12.80;;;4.50;99.90;;;;;;5063281;28;20662;-65
2022/11/13 06:48:03;;;;;;;43.75;13.80;;;4.60;99.90;;;;;;5062515;28;20197;-66
2022/11/13 06:50:50;;;;;;;50.15;13.70;;;4.60;99.90;;;;;;5062244;28;20184;-65
2022/11/13 06:53:38;;;;;;;31.05;13.15;;;4.70;99.90;;;;;;5060347;28;20587;-65
2022/11/13 06:56:24;;;;;;;32.03;14.70;;;4.70;99.90;;;;;;5058689;28;20607;-65
2022/11/13 06:59:11;;;;;;;49.22;15.48;;;4.80;99.90;;;;;;5057776;28;20201;-66
2022/11/13 07:01:57;;;;;;;21.35;13.10;;;4.70;99.90;;;;;;5051480;28;20203;-66
2022/11/13 07:04:44;;;;;;;33.15;14.32;;;4.70;99.90;;;;;;5062466;28;20214;-66
2022/11/13 07:07:30;;;;;;;25.85;14.18;;;4.80;99.90;;;;;;5072377;28;20270;-65
2022/11/13 07:10:18;;;;;;;27.73;16.23;;;4.70;99.90;;;;;;5069963;28;20192;-65
2022/11/13 07:13:05;;;;;;;29.17;15.48;;;4.90;99.90;;;;;;5051809;28;20185;-65
2022/11/13 07:15:51;;;;;;;31.48;14.25;;;4.90;99.90;;;;;;5051403;28;20231;-65
2022/11/13 07:18:38;;;;;;;31.20;16.20;;;5.00;99.90;;;;;;5053738;28;20695;-65
2022/11/13 07:21:25;;;;;;;28.65;17.52;;;5.00;99.90;;;;;;5056539;28;20226;-65
2022/11/13 07:24:11;;;;;;;28.80;15.57;;;4.90;99.90;;;;;;5051475;28;20585;-65
2022/11/13 07:26:59;;;;;;;28.17;14.63;;;4.80;99.90;;;;;;5053737;28;20200;-65
2022/11/13 07:29:45;;;;;;;28.75;14.32;;;4.80;99.90;;;;;;5069902;28;20434;-66
2022/11/13 07:32:31;;;;;;;26.67;15.77;;;4.80;99.90;;;;;;5069688;28;20191;-66
2022/11/13 07:35:18;;;;;;;29.08;16.10;;;4.90;99.90;;;;;;5060896;28;20685;-65
2022/11/13 07:38:04;;;;;;;26.77;15.90;;;4.90;99.90;;;;;;5053488;28;20219;-66
2022/11/13 07:40:51;;;;;;;34.05;16.13;;;5.00;99.90;;;;;;5053660;28;20215;-65
2022/11/13 07:43:39;;;;;;;24.58;15.23;;;5.10;99.90;;;;;;5055611;28;20188;-66
2022/11/13 07:46:25;;;;;;;34.45;14.27;;;5.00;99.90;;;;;;5055430;28;20192;-65
2022/11/13 07:49:11;;;;;;;25.15;15.95;;;5.00;99.90;;;;;;5055919;28;20238;-65
2022/11/13 07:51:58;;;;;;;30.30;17.40;;;5.10;99.90;;;;;;5075019;28;20210;-66
2022/11/13 07:54:44;;;;;;;28.45;15.52;;;5.10;99.90;;;;;;5074645;28;20188;-66
2022/11/13 07:57:30;;;;;;;31.00;15.35;;;5.10;99.90;;;;;;5074386;28;20656;-65
2022/11/13 08:00:18;;;;;;;33.60;15.63;;;5.00;99.90;;;;;;5075561;28;20184;-65
2022/11/13 08:03:06;;;;;;;30.65;16.40;;;5.00;99.90;;;;;;5073627;28;20195;-65
2022/11/13 08:05:53;;;;;;;28.42;15.98;;;5.00;99.90;;;;;;5074687;28;20184;-65
2022/11/13 08:08:39;;;;;;;32.97;14.82;;;5.10;99.90;;;;;;5074490;28;20548;-65
2022/11/13 08:11:26;;;;;;;27.05;15.77;;;5.10;99.90;;;;;;5075453;28;20295;-66
2022/11/13 08:14:12;;;;;;;24.52;14.05;;;5.10;99.90;;;;;;5074543;28;20184;-66
2022/11/13 08:17:02;;;;;;;26.38;16.88;;;5.10;99.90;;;;;;5075171;28;20192;-65
2022/11/13 08:19:48;;;;;;;25.90;15.55;;;5.10;99.90;;;;;;5074863;28;20557;-66
2022/11/13 08:22:34;;;;;;;29.70;17.20;;;5.20;99.90;;;;;;5073703;28;20188;-66
2022/11/13 08:25:21;;;;;;;25.40;14.27;;;5.20;99.90;;;;;;5074875;28;20188;-66
2022/11/13 08:28:07;;;;;;;29.25;16.80;;;5.20;99.90;;;;;;5074377;28;20227;-66
2022/11/13 08:30:53;;;;;;;20.75;14.23;;;5.10;99.90;;;;;;5074683;28;20187;-66
2022/11/13 08:33:42;;;;;;;25.58;16.10;;;5.20;99.90;;;;;;5074731;28;20237;-66
2022/11/13 08:36:28;;;;;;;26.08;17.25;;;5.40;99.90;;;;;;5074786;28;20269;-66
2022/11/13 08:39:15;;;;;;;25.42;15.18;;;5.40;99.90;;;;;;5073255;28;20208;-67
2022/11/13 08:42:01;;;;;;;28.73;15.68;;;5.50;99.90;;;;;;5074745;28;20200;-67
2022/11/13 08:44:48;;;;;;;23.88;14.63;;;5.50;99.90;;;;;;5074812;28;20749;-67
2022/11/13 08:47:34;;;;;;;21.05;14.40;;;5.60;99.90;;;;;;5074786;28;20176;-67
2022/11/13 08:50:22;;;;;;;21.70;13.73;;;5.60;99.90;;;;;;5074514;28;20186;-66
2022/11/13 08:53:10;;;;;;;24.92;16.02;;;5.60;99.90;;;;;;5074548;28;20708;-67
2022/11/13 08:56:00;;;;;;;23.13;15.25;;;5.50;99.90;;;;;;5074089;28;20184;-67
2022/11/13 08:58:46;;;;;;;22.38;16.25;;;5.50;99.90;;;;;;5073465;28;20212;-67
2022/11/13 09:01:33;;;;;;;23.05;15.23;;;5.50;99.90;;;;;;5072883;28;20248;-67
2022/11/13 09:04:19;;;;;;;24.20;15.50;;;5.60;99.90;;;;;;5073486;28;20195;-67
2022/11/13 09:07:07;;;;;;;18.77;14.68;;;5.70;99.90;;;;;;5073761;28;20258;-67
2022/11/13 09:09:53;;;;;;;27.48;15.73;;;5.70;99.90;;;;;;5074373;28;20557;-67
2022/11/13 09:12:40;;;;;;;22.77;15.80;;;5.80;99.90;;;;;;5074015;28;20223;-67
2022/11/13 09:15:26;;;;;;;23.73;16.25;;;6.00;99.90;;;;;;5074557;28;20299;-67
2022/11/13 09:18:12;;;;;;;23.58;14.80;;;6.00;99.90;;;;;;5073738;28;20212;-67
2022/11/13 09:21:01;;;;;;;22.60;16.15;;;6.00;99.90;;;;;;5074051;28;20198;-67
2022/11/13 09:23:50;;;;;;;21.70;14.00;;;6.00;99.90;;;;;;5069011;28;20197;-67
2022/11/13 09:26:36;;;;;;;25.10;16.75;;;5.90;99.90;;;;;;5058524;28;20200;-67
2022/11/13 09:29:24;;;;;;;23.73;15.75;;;6.00;99.90;;;;;;5056687;28;20712;-66
2022/11/13 09:32:11;;;;;;;20.42;14.23;;;6.10;99.90;;;;;;5072830;28;20192;-67
2022/11/13 09:34:57;;;;;;;19.95;13.00;;;6.10;99.90;;;;;;5073286;28;20188;-67
2022/11/13 09:37:43;;;;;;;19.45;14.00;;;6.00;99.90;;;;;;5072657;28;20661;-67
2022/11/13 09:40:34;;;;;;;22.65;13.25;;;5.90;99.90;;;;;;5073286;28;20245;-66
2022/11/13 09:43:30;;;;;;;20.33;13.38;;;5.90;99.90;;;;;;5054369;28;20209;-67
2022/11/13 09:46:23;;;;;;;17.52;14.18;;;6.00;99.90;;;;;;5053208;28;20662;-67
2022/11/13 09:49:15;;;;;;;19.08;14.27;;;6.20;99.90;;;;;;5053071;28;20204;-67
2022/11/13 09:52:05;;;;;;;16.73;13.60;;;6.50;99.90;;;;;;5053496;28;20216;-67
2022/11/13 09:54:52;;;;;;;21.70;15.25;;;6.50;99.90;;;;;;5052567;28;20193;-67
2022/11/13 09:57:47;;;;;;;21.80;13.55;;;6.80;99.90;;;;;;5052312;28;20184;-67
2022/11/13 10:00:35;;;;;;;19.10;14.57;;;6.90;99.90;;;;;;5052084;28;20197;-67
2022/11/13 10:03:31;;;;;;;18.75;14.10;;;6.80;99.90;;;;;;5050803;28;20208;-68
2022/11/13 10:06:24;;;;;;;21.08;15.27;;;6.70;99.90;;;;;;5052473;28;20196;-67
2022/11/13 10:09:20;;;;;;;16.70;13.40;;;6.60;99.90;;;;;;5052430;28;20561;-67
2022/11/13 10:12:08;;;;;;;19.90;15.45;;;6.90;99.90;;;;;;5053037;28;20217;-66
2022/11/13 10:15:01;;;;;;;19.92;14.45;;;6.60;99.90;;;;;;5051723;28;20200;-66
2022/11/13 10:17:52;;;;;;;22.30;15.75;;;6.50;99.90;;;;;;5052846;28;20591;-67
2022/11/13 10:20:43;;;;;;;21.42;15.25;;;6.70;99.90;;;;;;5051827;28;20185;-67
2022/11/13 10:23:34;;;;;;;18.45;14.30;;;6.60;99.90;;;;;;5052837;28;20545;-66
2022/11/13 10:26:23;;;;;;;18.95;14.75;;;7.00;99.90;;;;;;5052756;28;20262;-66
2022/11/13 10:29:13;;;;;;;18.73;13.65;;;7.10;99.90;;;;;;5052570;28;20699;-66
2022/11/13 10:32:30;;;;;;;;;;;;;;;;;;;;;
2022/11/13 10:35:32;;;;;;;16.88;12.98;;;7.10;99.90;;;;;;5052240;28;20204;-65
2022/11/13 10:38:26;;;;;;;21.25;14.88;;;7.00;99.90;;;;;;5053148;28;20196;-66
2022/11/13 10:41:14;;;;;;;16.45;12.68;;;7.40;99.90;;;;;;5052295;28;20254;-66
2022/11/13 10:44:01;;;;;;;16.88;13.35;;;7.50;99.90;;;;;;5053510;28;20189;-66
2022/11/13 10:46:48;;;;;;;16.17;12.50;;;7.40;99.90;;;;;;5052119;28;20192;-67
2022/11/13 10:49:36;;;;;;;16.48;13.00;;;7.40;99.90;;;;;;5053480;28;20181;-67
2022/11/13 10:52:25;;;;;;;14.43;12.30;;;7.70;99.90;;;;;;5052494;28;20207;-66
2022/11/13 10:55:20;;;;;;;15.20;12.93;;;7.80;99.90;;;;;;5052802;28;20200;-67
2022/11/13 10:58:13;;;;;;;14.80;12.15;;;8.40;99.90;;;;;;5052145;28;20201;-66
2022/11/13 11:01:00;;;;;;;14.95;11.77;;;9.20;99.90;;;;;;5052056;28;20189;-66
2022/11/13 11:03:50;;;;;;;13.07;11.10;;;9.10;99.90;;;;;;5051662;28;20185;-66
2022/11/13 11:06:40;;;;;;;14.80;11.05;;;9.30;99.90;;;;;;5052017;28;20196;-67
2022/11/13 11:09:28;;;;;;;14.85;12.13;;;9.40;99.90;;;;;;5052313;28;20185;-66
2022/11/13 11:12:17;;;;;;;11.20;10.10;;;9.80;99.90;;;;;;5050784;28;20755;-66
2022/11/13 11:15:17;;;;;;;12.65;10.85;;;10.30;99.90;;;;;;5051816;28;20597;-66
2022/11/13 11:18:07;;;;;;;10.60;9.50;;;10.20;99.90;;;;;;5052157;28;20209;-65
2022/11/13 11:20:57;;;;;;;12.20;11.00;;;10.00;99.90;;;;;;5052148;28;20676;-66
2022/11/13 11:23:55;;;;;;;12.77;10.30;;;10.50;99.90;;;;;;5051854;28;20603;-65
2022/11/13 11:26:47;;;;;;;12.27;11.00;;;10.10;99.90;;;;;;5052558;28;20204;-65
2022/11/13 11:29:39;;;;;;;12.52;11.32;;;10.00;99.90;;;;;;5050936;28;20640;-65
2022/11/13 11:32:34;;;;;;;12.80;11.23;;;10.40;99.90;;;;;;5051507;28;20209;-66
2022/11/13 11:35:24;;;;;;;12.00;10.80;;;10.10;99.90;;;;;;5051589;28;20611;-66
2022/11/13 11:38:15;;;;;;;11.63;10.50;;;11.00;99.90;;;;;;5052449;28;20580;-66
2022/11/13 11:41:10;;;;;;;13.43;10.67;;;12.00;99.90;;;;;;5052014;28;20587;-66
2022/11/13 11:44:04;;;;;;;12.03;10.93;;;12.00;99.90;;;;;;5051260;28;21167;-66
2022/11/13 11:46:52;;;;;;;11.47;10.37;;;12.20;99.90;;;;;;5051504;28;21164;-66
2022/11/13 11:49:39;;;;;;;13.80;11.57;;;12.40;99.90;;;;;;5050843;28;20602;-66
2022/11/13 11:52:40;;;;;;;13.80;11.30;;;11.90;99.90;;;;;;5051799;28;20595;-66
2022/11/13 11:55:41;;;;;;;13.50;11.80;;;12.20;99.90;;;;;;5051571;28;20610;-66
2022/11/13 11:58:49;;;;;;;12.13;10.77;;;12.30;99.90;;;;;;5051383;28;20626;-66
2022/11/13 12:01:59;;;;;;;12.60;11.40;;;12.40;99.90;;;;;;5050665;28;20606;-67
2022/11/13 12:04:59;;;;;;;12.17;10.70;;;12.50;99.90;;;;;;5050131;28;20626;-66
2022/11/13 12:07:57;;;;;;;12.17;11.07;;;12.80;99.90;;;;;;5052015;28;20637;-66
2022/11/13 12:10:50;;;;;;;11.23;10.20;;;12.70;99.90;;;;;;5051183;28;20603;-66
2022/11/13 12:13:46;;;;;;;11.87;10.77;;;13.40;99.90;;;;;;5051608;28;20987;-66
2022/11/13 12:16:43;;;;;;;10.80;9.90;;;13.30;99.90;;;;;;5051562;28;20584;-66
2022/11/13 12:19:48;;;;;;;12.27;11.27;;;13.60;99.90;;;;;;5051050;28;20637;-66
2022/11/13 12:22:45;;;;;;;11.13;10.20;;;13.80;99.90;;;;;;5051593;28;20575;-66
2022/11/13 12:25:36;;;;;;;11.90;10.80;;;14.30;99.90;;;;;;5054738;28;20619;-67
2022/11/13 12:28:28;;;;;;;14.20;10.83;;;14.90;99.90;;;;;;5055241;28;20654;-66
2022/11/13 12:31:29;;;;;;;11.30;10.30;;;15.20;99.90;;;;;;5054762;28;21196;-66
2022/11/13 12:34:25;;;;;;;11.70;10.80;;;15.10;99.90;;;;;;5054298;28;20916;-66
2022/11/13 12:37:14;;;;;;;13.17;11.77;;;15.30;99.90;;;;;;5055122;28;20591;-66
2022/11/13 12:40:07;;;;;;;11.70;10.80;;;14.90;99.90;;;;;;5054765;28;21216;-66
2022/11/13 12:42:58;;;;;;;11.83;10.70;;;14.60;99.90;;;;;;5054342;28;21002;-66
2022/11/13 12:45:52;;;;;;;12.17;11.07;;;14.50;99.90;;;;;;5055224;28;20583;-66
2022/11/13 12:48:41;;;;;;;11.17;10.17;;;14.70;99.90;;;;;;5054295;28;20636;-67
2022/11/13 12:51:40;;;;;;;10.40;9.60;;;15.60;99.90;;;;;;5054484;28;20623;-66
2022/11/13 12:54:31;;;;;;;11.90;10.83;;;15.00;99.90;;;;;;5054449;28;21246;-66
2022/11/13 12:57:21;;;;;;;11.37;10.57;;;15.30;99.90;;;;;;5054548;28;20606;-66
2022/11/13 13:00:21;;;;;;;11.57;10.77;;;15.70;99.90;;;;;;5054823;28;21013;-67
2022/11/13 13:03:22;;;;;;;12.17;11.10;;;15.90;99.90;;;;;;5053393;28;20991;-66
2022/11/13 13:06:25;;;;;;;11.43;10.53;;;15.50;99.90;;;;;;5054460;28;21009;-66
2022/11/13 13:09:27;;;;;;;11.37;10.50;;;15.80;99.90;;;;;;5054019;28;20590;-66
2022/11/13 13:12:20;;;;;;;11.00;9.13;;;16.50;99.90;;;;;;5054418;28;20638;-66
2022/11/13 13:15:12;;;;;;;11.00;9.97;;;16.70;99.90;;;;;;5054475;28;20587;-66
2022/11/13 13:18:05;;;;;;;11.70;10.70;;;16.30;99.90;;;;;;5053866;28;20647;-66
2022/11/13 13:21:01;;;;;;;11.13;10.33;;;16.30;99.90;;;;;;5053918;28;21238;-66
2022/11/13 13:23:52;;;;;;;10.77;10.07;;;16.10;99.90;;;;;;5054155;28;20592;-66
2022/11/13 13:26:46;;;;;;;11.23;10.43;;;15.70;99.90;;;;;;5054290;28;20590;-66
2022/11/13 13:29:34;;;;;;;12.00;11.10;;;14.70;99.90;;;;;;5053345;28;20643;-66
2022/11/13 13:32:26;;;;;;;12.50;11.37;;;13.90;99.90;;;;;;5053816;28;20986;-66
2022/11/13 13:35:17;;;;;;;11.00;10.10;;;13.10;99.90;;;;;;5053480;28;20607;-66
2022/11/13 13:38:13;;;;;;;12.40;10.73;;;13.30;99.90;;;;;;5053105;28;21172;-66
2022/11/13 13:41:15;;;;;;;12.93;11.83;;;13.90;99.90;;;;;;5053723;28;20658;-66
2022/11/13 13:44:31;;;;;;;14.50;12.57;;;14.60;99.90;;;;;;5053409;28;20621;-66
2022/11/13 13:47:24;;;;;;;13.90;12.70;;;15.10;99.90;;;;;;5053648;28;20591;-66
2022/11/13 13:50:19;;;;;;;14.43;13.30;;;15.20;99.90;;;;;;5053534;28;20587;-66
2022/11/13 13:53:08;;;;;;;13.67;12.60;;;15.20;99.90;;;;;;5052859;28;20905;-66
2022/11/13 13:55:56;;;;;;;12.70;11.70;;;15.50;99.90;;;;;;5053579;28;20588;-67
2022/11/13 13:58:44;;;;;;;11.13;10.43;;;16.10;99.90;;;;;;5053250;28;20598;-67
2022/11/13 14:01:32;;;;;;;12.67;11.70;;;16.30;99.90;;;;;;5052718;28;20634;-66
2022/11/13 14:04:20;;;;;;;13.97;12.83;;;16.80;99.90;;;;;;5051101;28;20582;-67
2022/11/13 14:07:20;;;;;;;14.97;13.70;;;16.00;99.90;;;;;;5052793;28;20594;-66
2022/11/13 14:10:14;;;;;;;12.80;11.90;;;16.20;99.90;;;;;;5053763;28;20624;-65
2022/11/13 14:13:00;;;;;;;13.13;12.13;;;15.70;99.90;;;;;;5053222;28;20579;-66
2022/11/13 14:15:48;;;;;;;13.17;12.20;;;15.30;99.90;;;;;;5051872;28;20590;-67
2022/11/13 14:18:35;;;;;;;12.57;11.53;;;15.70;99.90;;;;;;5054070;28;20619;-66
2022/11/13 14:21:24;;;;;;;12.50;11.50;;;15.50;99.90;;;;;;5053257;28;20643;-67
2022/11/13 14:24:16;;;;;;;12.60;11.50;;;15.60;99.90;;;;;;5055626;28;20664;-66
2022/11/13 14:27:06;;;;;;;12.47;11.43;;;15.60;99.90;;;;;;5053745;28;21213;-67
2022/11/13 14:29:55;;;;;;;12.20;11.30;;;15.90;99.90;;;;;;5053613;28;20587;-67